KAFO

Afton Municipal Airport

Afton, Wyoming, USA
METAR KAFO 181315Z AUTO 26004KT 10SM SCT044 SCT050 OVC065 M01/M03 A3015 RMK AO2
Observed Flight Rules
Dec-18 @ 13:15 UTC (19 minutes ago) Visual Flight Rules
Wind Visibility Clouds
260° at 4 knots 10 miles
  • Scattered at 4,400' AGL
  • Scattered at 5,000' AGL
  • Overcast at 6,500' AGL
Temperatures Readings
Current -1°C / 30°F
Dewpoint -3°C / 27°F
Humidity 86%
Altimeter 30.15" Hg
Pressure 1021 hPa
Elevation 1897
METAR KAFO 181315Z AUTO 26004KT 10SM SCT044 SCT050 OVC065 M01/M03 A3015 RMK AO2
Observed Flight Rules
Dec-18 @ 13:15 UTC
(19 minutes ago)
VFR
Wind Visibility
260° at 4 knots 10 miles
Clouds
  • Scattered at 4,400' AGL
  • Scattered at 5,000' AGL
  • Overcast at 6,500' AGL
Temperature Dewpoint
-1°C / 30°F -3°C / 27°F
Humidity Altimeter Pressure
86% 30.15" Hg 1021 hPa